Terminal Aerodrome Forecast
Issued by NWS Wakefield, VA

Home | Current Version | Previous Version | Text Only | Print | Product List | Glossary On
Versions: 1 2 3 4 5 6 7 8 9 10 11 12 13 14 15 16 17 18 19 20 21 22 23 24
000
FTUS41 KAKQ 231920 AAA
TAFORF
TAF AMD
KORF 231920Z 2319/2418 05012G19KT P6SM BKN030 OVC100
      TEMPO 2319/2323 -RA BKN015 OVC030
     FM232300 06013KT 5SM -RA BR OVC015
     FM240600 06015G25KT 3SM -RA BR OVC007=

USA.gov is the U.S. government's official web portal to all federal, state and local government web resources and services.